Skip Navigation Links Skip Navigation Links

Current Weather

Otsego County, Gaylord, Mich.

For information only: do not use for flight planning or navigation.
Latest weather
Observation time Saturday, October 19, 2019 5:53 AM EDT
Local time Saturday, October 19, 2019 6:54 AM EDT
Flight conditions Visual Meteorological Conditions
Winds
Wind direction South-Southeast (160°)
Wind speed 7 mph
Visibility 10 mi.
Sky condition
Ceiling unlimited
Sky clear
Temperature 35°F
Dewpoint 34°F
Altimeter 29.93 in.Hg
Derived measurements
Relative humidity 96%
Wind chill 29°F
Density altitude -203 ft.
Sea-level pressure 29.96 in.Hg
Remarks
Fully automated report.
Automated weather observing station with precipitation discriminator.
METAR KGLR 190953Z AUTO 16006KT 10SM CLR 02/01 A2993 RMK AO2 SLP144 T00170011

Settings

Location code

InnerDrive.Weather 4.0.6770.0 Release CLR 4.0.30319.42000
Copyright ©2018 Inner Drive Technology. All rights reserved. Portions Copyright ©1986-2018 David Braverman.

Find weather

Site navigation


Skip Navigation Links

Place info

Page info

PayPal - The safer, easier way to pay online!

Return home.

Copyright ©2019 Inner Drive Technology. Purveyors of fine, hand-crafted computer software. Page printed 2019-10-19T10:54:42 UTC.